sensor_id;sensor_type;location;lat;lon;timestamp;temperature;humidity
48007;DHT22;33771;48.180;11.400;2024-01-07T00:01:26;1.10;99.90
48007;DHT22;33771;48.180;11.400;2024-01-07T00:03:52;1.10;99.90
48007;DHT22;33771;48.180;11.400;2024-01-07T00:06:17;1.10;99.90
48007;DHT22;33771;48.180;11.400;2024-01-07T00:08:43;1.10;99.90
48007;DHT22;33771;48.180;11.400;2024-01-07T00:11:09;1.10;99.90
48007;DHT22;33771;48.180;11.400;2024-01-07T00:13:35;1.10;99.90
48007;DHT22;33771;48.180;11.400;2024-01-07T00:16:01;1.10;99.90
48007;DHT22;33771;48.180;11.400;2024-01-07T00:18:26;1.10;99.90
48007;DHT22;33771;48.180;11.400;2024-01-07T00:20:53;1.10;99.90
48007;DHT22;33771;48.180;11.400;2024-01-07T00:23:18;1.10;99.90
48007;DHT22;33771;48.180;11.400;2024-01-07T00:25:46;1.10;99.90
48007;DHT22;33771;48.180;11.400;2024-01-07T00:28:12;1.10;99.90
48007;DHT22;33771;48.180;11.400;2024-01-07T00:30:37;1.10;99.90
48007;DHT22;33771;48.180;11.400;2024-01-07T00:33:03;1.10;99.90
48007;DHT22;33771;48.180;11.400;2024-01-07T00:35:29;1.10;99.90
48007;DHT22;33771;48.180;11.400;2024-01-07T00:37:54;1.10;99.90
48007;DHT22;33771;48.180;11.400;2024-01-07T00:40:24;1.10;99.90
48007;DHT22;33771;48.180;11.400;2024-01-07T00:42:49;1.10;99.90
48007;DHT22;33771;48.180;11.400;2024-01-07T00:45:16;1.10;99.90
48007;DHT22;33771;48.180;11.400;2024-01-07T00:47:42;1.10;99.90
48007;DHT22;33771;48.180;11.400;2024-01-07T00:50:08;1.10;99.90
48007;DHT22;33771;48.180;11.400;2024-01-07T00:52:33;1.10;99.90
48007;DHT22;33771;48.180;11.400;2024-01-07T00:54:59;1.10;99.90
48007;DHT22;33771;48.180;11.400;2024-01-07T00:57:25;1.10;99.90
48007;DHT22;33771;48.180;11.400;2024-01-07T00:59:51;1.10;99.90
48007;DHT22;33771;48.180;11.400;2024-01-07T01:02:16;1.10;99.90
48007;DHT22;33771;48.180;11.400;2024-01-07T01:04:42;1.10;99.90
48007;DHT22;33771;48.180;11.400;2024-01-07T01:07:07;1.10;99.90
48007;DHT22;33771;48.180;11.400;2024-01-07T01:09:33;1.10;99.90
48007;DHT22;33771;48.180;11.400;2024-01-07T01:11:59;1.00;99.90
48007;DHT22;33771;48.180;11.400;2024-01-07T01:14:25;1.00;99.90
48007;DHT22;33771;48.180;11.400;2024-01-07T01:16:50;1.00;99.90
48007;DHT22;33771;48.180;11.400;2024-01-07T01:19:16;1.00;99.90
48007;DHT22;33771;48.180;11.400;2024-01-07T01:21:42;1.00;99.90
48007;DHT22;33771;48.180;11.400;2024-01-07T01:24:07;1.00;99.90
48007;DHT22;33771;48.180;11.400;2024-01-07T01:26:33;1.00;99.90
48007;DHT22;33771;48.180;11.400;2024-01-07T01:28:59;1.00;99.90
48007;DHT22;33771;48.180;11.400;2024-01-07T01:31:24;1.00;99.90
48007;DHT22;33771;48.180;11.400;2024-01-07T01:33:50;1.00;99.90
48007;DHT22;33771;48.180;11.400;2024-01-07T01:36:15;1.00;99.90
48007;DHT22;33771;48.180;11.400;2024-01-07T01:38:41;1.00;99.90
48007;DHT22;33771;48.180;11.400;2024-01-07T01:41:06;1.00;99.90
48007;DHT22;33771;48.180;11.400;2024-01-07T01:43:32;1.00;99.90
48007;DHT22;33771;48.180;11.400;2024-01-07T01:45:58;1.00;99.90
48007;DHT22;33771;48.180;11.400;2024-01-07T01:48:25;1.00;99.90
48007;DHT22;33771;48.180;11.400;2024-01-07T01:50:52;1.00;99.90
48007;DHT22;33771;48.180;11.400;2024-01-07T01:53:19;1.00;99.90
48007;DHT22;33771;48.180;11.400;2024-01-07T01:55:45;1.00;99.90
48007;DHT22;33771;48.180;11.400;2024-01-07T01:58:13;1.00;99.90
48007;DHT22;33771;48.180;11.400;2024-01-07T02:00:39;1.00;99.90
48007;DHT22;33771;48.180;11.400;2024-01-07T02:03:05;1.00;99.90
48007;DHT22;33771;48.180;11.400;2024-01-07T02:05:31;1.00;99.90
48007;DHT22;33771;48.180;11.400;2024-01-07T02:07:57;0.90;99.90
48007;DHT22;33771;48.180;11.400;2024-01-07T02:10:23;1.00;99.90
48007;DHT22;33771;48.180;11.400;2024-01-07T02:12:48;1.00;99.90
48007;DHT22;33771;48.180;11.400;2024-01-07T02:15:15;1.00;99.90
48007;DHT22;33771;48.180;11.400;2024-01-07T02:17:41;1.00;99.90
48007;DHT22;33771;48.180;11.400;2024-01-07T02:20:07;1.00;99.90
48007;DHT22;33771;48.180;11.400;2024-01-07T02:22:32;1.00;99.90
48007;DHT22;33771;48.180;11.400;2024-01-07T02:24:58;1.00;99.90
48007;DHT22;33771;48.180;11.400;2024-01-07T02:27:23;1.00;99.90
48007;DHT22;33771;48.180;11.400;2024-01-07T02:29:49;1.00;99.90
48007;DHT22;33771;48.180;11.400;2024-01-07T02:32:14;1.00;99.90
48007;DHT22;33771;48.180;11.400;2024-01-07T02:34:40;1.00;99.90
48007;DHT22;33771;48.180;11.400;2024-01-07T02:37:05;0.90;99.90
48007;DHT22;33771;48.180;11.400;2024-01-07T02:39:31;1.00;99.90
48007;DHT22;33771;48.180;11.400;2024-01-07T02:41:57;0.90;99.90
48007;DHT22;33771;48.180;11.400;2024-01-07T02:44:22;0.90;99.90
48007;DHT22;33771;48.180;11.400;2024-01-07T02:46:48;1.00;99.90
48007;DHT22;33771;48.180;11.400;2024-01-07T02:49:13;1.00;99.90
48007;DHT22;33771;48.180;11.400;2024-01-07T02:51:39;1.00;99.90
48007;DHT22;33771;48.180;11.400;2024-01-07T02:54:05;1.00;99.90
48007;DHT22;33771;48.180;11.400;2024-01-07T02:56:30;1.00;99.90
48007;DHT22;33771;48.180;11.400;2024-01-07T02:58:56;1.00;99.90
48007;DHT22;33771;48.180;11.400;2024-01-07T03:01:24;0.90;99.90
48007;DHT22;33771;48.180;11.400;2024-01-07T03:03:50;1.00;99.90
48007;DHT22;33771;48.180;11.400;2024-01-07T03:06:15;0.90;99.90
48007;DHT22;33771;48.180;11.400;2024-01-07T03:08:42;0.90;99.90
48007;DHT22;33771;48.180;11.400;2024-01-07T03:11:08;0.90;99.90
48007;DHT22;33771;48.180;11.400;2024-01-07T03:13:33;0.90;99.90
48007;DHT22;33771;48.180;11.400;2024-01-07T03:15:59;0.90;99.90
48007;DHT22;33771;48.180;11.400;2024-01-07T03:18:25;0.90;99.90
48007;DHT22;33771;48.180;11.400;2024-01-07T03:20:51;0.90;99.90
48007;DHT22;33771;48.180;11.400;2024-01-07T03:23:17;0.90;99.90
48007;DHT22;33771;48.180;11.400;2024-01-07T03:25:44;0.90;99.90
48007;DHT22;33771;48.180;11.400;2024-01-07T03:28:09;0.90;99.90
48007;DHT22;33771;48.180;11.400;2024-01-07T03:30:35;0.90;99.90
48007;DHT22;33771;48.180;11.400;2024-01-07T03:33:01;0.90;99.90
48007;DHT22;33771;48.180;11.400;2024-01-07T03:35:27;0.90;99.90
48007;DHT22;33771;48.180;11.400;2024-01-07T03:37:52;1.00;99.90
48007;DHT22;33771;48.180;11.400;2024-01-07T03:40:18;1.00;99.90
48007;DHT22;33771;48.180;11.400;2024-01-07T03:42:43;1.00;99.90
48007;DHT22;33771;48.180;11.400;2024-01-07T03:45:09;1.00;99.90
48007;DHT22;33771;48.180;11.400;2024-01-07T03:47:34;1.00;99.90
48007;DHT22;33771;48.180;11.400;2024-01-07T03:50:00;1.00;99.90
48007;DHT22;33771;48.180;11.400;2024-01-07T03:52:25;1.00;99.90
48007;DHT22;33771;48.180;11.400;2024-01-07T03:54:51;1.00;99.90
48007;DHT22;33771;48.180;11.400;2024-01-07T03:57:16;1.00;99.90
48007;DHT22;33771;48.180;11.400;2024-01-07T03:59:42;1.00;99.90
48007;DHT22;33771;48.180;11.400;2024-01-07T04:02:07;1.00;99.90
48007;DHT22;33771;48.180;11.400;2024-01-07T04:04:33;1.00;99.90
48007;DHT22;33771;48.180;11.400;2024-01-07T04:06:58;1.00;99.90
48007;DHT22;33771;48.180;11.400;2024-01-07T04:09:24;0.90;99.90
48007;DHT22;33771;48.180;11.400;2024-01-07T04:11:49;1.00;99.90
48007;DHT22;33771;48.180;11.400;2024-01-07T04:14:15;1.00;99.90
48007;DHT22;33771;48.180;11.400;2024-01-07T04:16:41;1.00;99.90
48007;DHT22;33771;48.180;11.400;2024-01-07T04:19:07;1.00;99.90
48007;DHT22;33771;48.180;11.400;2024-01-07T04:21:32;1.00;99.90
48007;DHT22;33771;48.180;11.400;2024-01-07T04:23:58;1.00;99.90
48007;DHT22;33771;48.180;11.400;2024-01-07T04:26:23;1.00;99.90
48007;DHT22;33771;48.180;11.400;2024-01-07T04:28:50;1.00;99.90
48007;DHT22;33771;48.180;11.400;2024-01-07T04:31:15;0.90;99.90
48007;DHT22;33771;48.180;11.400;2024-01-07T04:33:41;0.90;99.90
48007;DHT22;33771;48.180;11.400;2024-01-07T04:36:06;1.00;99.90
48007;DHT22;33771;48.180;11.400;2024-01-07T04:38:32;1.00;99.90
48007;DHT22;33771;48.180;11.400;2024-01-07T04:40:58;1.00;99.90
48007;DHT22;33771;48.180;11.400;2024-01-07T04:43:23;1.00;99.90
48007;DHT22;33771;48.180;11.400;2024-01-07T04:45:49;1.00;99.90
48007;DHT22;33771;48.180;11.400;2024-01-07T04:48:14;1.00;99.90
48007;DHT22;33771;48.180;11.400;2024-01-07T04:50:40;1.00;99.90
48007;DHT22;33771;48.180;11.400;2024-01-07T04:53:09;1.00;99.90
48007;DHT22;33771;48.180;11.400;2024-01-07T04:55:35;1.00;99.90
48007;DHT22;33771;48.180;11.400;2024-01-07T04:58:01;1.00;99.90
48007;DHT22;33771;48.180;11.400;2024-01-07T05:00:27;1.00;99.90
48007;DHT22;33771;48.180;11.400;2024-01-07T05:02:52;1.00;99.90
48007;DHT22;33771;48.180;11.400;2024-01-07T05:05:18;1.00;99.90
48007;DHT22;33771;48.180;11.400;2024-01-07T05:07:44;1.00;99.90
48007;DHT22;33771;48.180;11.400;2024-01-07T05:10:09;1.00;99.90
48007;DHT22;33771;48.180;11.400;2024-01-07T05:12:35;1.00;99.90
48007;DHT22;33771;48.180;11.400;2024-01-07T05:15:00;1.00;99.90
48007;DHT22;33771;48.180;11.400;2024-01-07T05:17:26;1.00;99.90
48007;DHT22;33771;48.180;11.400;2024-01-07T05:19:51;0.90;99.90
48007;DHT22;33771;48.180;11.400;2024-01-07T05:22:17;1.00;99.90
48007;DHT22;33771;48.180;11.400;2024-01-07T05:24:42;1.00;99.90
48007;DHT22;33771;48.180;11.400;2024-01-07T05:27:09;1.00;99.90
48007;DHT22;33771;48.180;11.400;2024-01-07T05:29:34;0.90;99.90
48007;DHT22;33771;48.180;11.400;2024-01-07T05:32:00;1.00;99.90
48007;DHT22;33771;48.180;11.400;2024-01-07T05:34:27;0.90;99.90
48007;DHT22;33771;48.180;11.400;2024-01-07T05:36:53;0.90;99.90
48007;DHT22;33771;48.180;11.400;2024-01-07T05:39:18;0.90;99.90
48007;DHT22;33771;48.180;11.400;2024-01-07T05:41:44;0.90;99.90
48007;DHT22;33771;48.180;11.400;2024-01-07T05:44:09;0.90;99.90
48007;DHT22;33771;48.180;11.400;2024-01-07T05:46:38;0.90;99.90
48007;DHT22;33771;48.180;11.400;2024-01-07T05:49:05;0.90;99.90
48007;DHT22;33771;48.180;11.400;2024-01-07T05:51:30;0.90;99.90
48007;DHT22;33771;48.180;11.400;2024-01-07T05:53:56;0.90;99.90
48007;DHT22;33771;48.180;11.400;2024-01-07T05:56:22;1.00;99.90
48007;DHT22;33771;48.180;11.400;2024-01-07T05:58:47;1.00;99.90
48007;DHT22;33771;48.180;11.400;2024-01-07T06:01:18;0.90;99.90
48007;DHT22;33771;48.180;11.400;2024-01-07T06:03:44;1.00;99.90
48007;DHT22;33771;48.180;11.400;2024-01-07T06:06:12;1.00;99.90
48007;DHT22;33771;48.180;11.400;2024-01-07T06:08:38;1.00;99.90
48007;DHT22;33771;48.180;11.400;2024-01-07T06:11:04;1.00;99.90
48007;DHT22;33771;48.180;11.400;2024-01-07T06:13:29;1.00;99.90
48007;DHT22;33771;48.180;11.400;2024-01-07T06:15:55;0.90;99.90
48007;DHT22;33771;48.180;11.400;2024-01-07T06:18:20;0.90;99.90
48007;DHT22;33771;48.180;11.400;2024-01-07T06:20:46;0.90;99.90
48007;DHT22;33771;48.180;11.400;2024-01-07T06:23:11;0.90;99.90
48007;DHT22;33771;48.180;11.400;2024-01-07T06:25:37;0.90;99.90
48007;DHT22;33771;48.180;11.400;2024-01-07T06:28:04;0.90;99.90
48007;DHT22;33771;48.180;11.400;2024-01-07T06:30:30;0.90;99.90
48007;DHT22;33771;48.180;11.400;2024-01-07T06:32:55;0.90;99.90
48007;DHT22;33771;48.180;11.400;2024-01-07T06:35:21;0.90;99.90
48007;DHT22;33771;48.180;11.400;2024-01-07T06:37:47;0.90;99.90
48007;DHT22;33771;48.180;11.400;2024-01-07T06:40:12;0.90;99.90
48007;DHT22;33771;48.180;11.400;2024-01-07T06:42:38;0.90;99.90
48007;DHT22;33771;48.180;11.400;2024-01-07T06:45:04;0.90;99.90
48007;DHT22;33771;48.180;11.400;2024-01-07T06:47:30;0.90;99.90
48007;DHT22;33771;48.180;11.400;2024-01-07T06:49:55;0.90;99.90
48007;DHT22;33771;48.180;11.400;2024-01-07T06:52:21;0.90;99.90
48007;DHT22;33771;48.180;11.400;2024-01-07T06:54:46;0.90;99.90
48007;DHT22;33771;48.180;11.400;2024-01-07T06:57:12;0.90;99.90
48007;DHT22;33771;48.180;11.400;2024-01-07T06:59:37;0.90;99.90
48007;DHT22;33771;48.180;11.400;2024-01-07T07:02:03;0.90;99.90
48007;DHT22;33771;48.180;11.400;2024-01-07T07:04:29;0.90;99.90
48007;DHT22;33771;48.180;11.400;2024-01-07T07:06:54;0.90;99.90
48007;DHT22;33771;48.180;11.400;2024-01-07T07:09:20;0.90;99.90
48007;DHT22;33771;48.180;11.400;2024-01-07T07:11:45;0.90;99.90
48007;DHT22;33771;48.180;11.400;2024-01-07T07:14:11;0.90;99.90
48007;DHT22;33771;48.180;11.400;2024-01-07T07:16:36;0.90;99.90
48007;DHT22;33771;48.180;11.400;2024-01-07T07:19:02;0.90;99.90
48007;DHT22;33771;48.180;11.400;2024-01-07T07:21:27;0.80;99.90
48007;DHT22;33771;48.180;11.400;2024-01-07T07:23:53;0.90;99.90
48007;DHT22;33771;48.180;11.400;2024-01-07T07:26:19;0.90;99.90
48007;DHT22;33771;48.180;11.400;2024-01-07T07:28:44;0.80;99.90
48007;DHT22;33771;48.180;11.400;2024-01-07T07:31:11;0.90;99.90
48007;DHT22;33771;48.180;11.400;2024-01-07T07:33:39;0.90;99.90
48007;DHT22;33771;48.180;11.400;2024-01-07T07:36:05;0.80;99.90
48007;DHT22;33771;48.180;11.400;2024-01-07T07:38:30;0.80;99.90
48007;DHT22;33771;48.180;11.400;2024-01-07T07:40:56;0.80;99.90
48007;DHT22;33771;48.180;11.400;2024-01-07T07:43:22;0.80;99.90
48007;DHT22;33771;48.180;11.400;2024-01-07T07:45:56;0.80;99.90
48007;DHT22;33771;48.180;11.400;2024-01-07T07:48:21;0.90;99.90
48007;DHT22;33771;48.180;11.400;2024-01-07T07:50:49;0.90;99.90
48007;DHT22;33771;48.180;11.400;2024-01-07T07:53:15;0.90;99.90
48007;DHT22;33771;48.180;11.400;2024-01-07T07:55:40;0.90;99.90
48007;DHT22;33771;48.180;11.400;2024-01-07T07:58:06;0.90;99.90
48007;DHT22;33771;48.180;11.400;2024-01-07T08:00:31;0.90;99.90
48007;DHT22;33771;48.180;11.400;2024-01-07T08:02:57;0.90;99.90
48007;DHT22;33771;48.180;11.400;2024-01-07T08:05:22;0.90;99.90
48007;DHT22;33771;48.180;11.400;2024-01-07T08:07:48;0.90;99.90
48007;DHT22;33771;48.180;11.400;2024-01-07T08:10:13;0.90;99.90
48007;DHT22;33771;48.180;11.400;2024-01-07T08:12:39;0.90;99.90
48007;DHT22;33771;48.180;11.400;2024-01-07T08:15:05;0.90;99.90
48007;DHT22;33771;48.180;11.400;2024-01-07T08:17:31;0.90;99.90
48007;DHT22;33771;48.180;11.400;2024-01-07T08:19:57;0.80;99.90
48007;DHT22;33771;48.180;11.400;2024-01-07T08:22:22;0.80;99.90
48007;DHT22;33771;48.180;11.400;2024-01-07T08:24:48;0.80;99.90
48007;DHT22;33771;48.180;11.400;2024-01-07T08:27:13;0.80;99.90
48007;DHT22;33771;48.180;11.400;2024-01-07T08:29:39;0.80;99.90
48007;DHT22;33771;48.180;11.400;2024-01-07T08:32:04;0.80;99.90
48007;DHT22;33771;48.180;11.400;2024-01-07T08:34:30;0.80;99.90
48007;DHT22;33771;48.180;11.400;2024-01-07T08:36:56;0.80;99.90
48007;DHT22;33771;48.180;11.400;2024-01-07T08:39:21;0.80;99.90
48007;DHT22;33771;48.180;11.400;2024-01-07T08:41:47;0.80;99.90
48007;DHT22;33771;48.180;11.400;2024-01-07T08:44:12;0.80;99.90
48007;DHT22;33771;48.180;11.400;2024-01-07T08:46:38;0.80;99.90
48007;DHT22;33771;48.180;11.400;2024-01-07T08:49:03;0.80;99.90
48007;DHT22;33771;48.180;11.400;2024-01-07T08:51:29;0.80;99.90
48007;DHT22;33771;48.180;11.400;2024-01-07T08:53:55;0.80;99.90
48007;DHT22;33771;48.180;11.400;2024-01-07T08:56:22;0.90;99.90
48007;DHT22;33771;48.180;11.400;2024-01-07T08:58:48;0.80;99.90
48007;DHT22;33771;48.180;11.400;2024-01-07T09:01:13;0.80;99.90
48007;DHT22;33771;48.180;11.400;2024-01-07T09:03:40;0.90;99.90
48007;DHT22;33771;48.180;11.400;2024-01-07T09:06:06;0.90;99.90
48007;DHT22;33771;48.180;11.400;2024-01-07T09:08:33;0.90;99.90
48007;DHT22;33771;48.180;11.400;2024-01-07T09:10:59;0.90;99.90
48007;DHT22;33771;48.180;11.400;2024-01-07T09:13:27;0.90;99.90
48007;DHT22;33771;48.180;11.400;2024-01-07T09:15:53;1.00;99.90
48007;DHT22;33771;48.180;11.400;2024-01-07T09:18:18;0.90;99.90
48007;DHT22;33771;48.180;11.400;2024-01-07T09:20:44;0.90;99.90
48007;DHT22;33771;48.180;11.400;2024-01-07T09:23:10;0.90;99.90
48007;DHT22;33771;48.180;11.400;2024-01-07T09:25:35;0.90;99.90
48007;DHT22;33771;48.180;11.400;2024-01-07T09:28:01;1.00;99.90
48007;DHT22;33771;48.180;11.400;2024-01-07T09:30:26;0.90;99.90
48007;DHT22;33771;48.180;11.400;2024-01-07T09:32:52;0.90;99.90
48007;DHT22;33771;48.180;11.400;2024-01-07T09:35:17;0.90;99.90
48007;DHT22;33771;48.180;11.400;2024-01-07T09:37:43;0.90;99.90
48007;DHT22;33771;48.180;11.400;2024-01-07T09:40:09;0.90;99.90
48007;DHT22;33771;48.180;11.400;2024-01-07T09:42:35;0.90;99.90
48007;DHT22;33771;48.180;11.400;2024-01-07T09:45:03;0.90;99.90
48007;DHT22;33771;48.180;11.400;2024-01-07T09:47:30;0.90;99.90
48007;DHT22;33771;48.180;11.400;2024-01-07T09:49:55;0.90;99.90
48007;DHT22;33771;48.180;11.400;2024-01-07T09:52:21;0.90;99.90
48007;DHT22;33771;48.180;11.400;2024-01-07T09:54:55;1.00;99.90
48007;DHT22;33771;48.180;11.400;2024-01-07T09:57:23;1.00;99.90
48007;DHT22;33771;48.180;11.400;2024-01-07T09:59:49;1.00;99.90
48007;DHT22;33771;48.180;11.400;2024-01-07T10:02:15;1.00;99.90
48007;DHT22;33771;48.180;11.400;2024-01-07T10:04:41;1.00;99.90
48007;DHT22;33771;48.180;11.400;2024-01-07T10:07:06;1.00;99.90
48007;DHT22;33771;48.180;11.400;2024-01-07T10:09:33;1.10;99.90
48007;DHT22;33771;48.180;11.400;2024-01-07T10:11:59;1.00;99.90
48007;DHT22;33771;48.180;11.400;2024-01-07T10:14:25;1.00;99.90
48007;DHT22;33771;48.180;11.400;2024-01-07T10:16:52;1.00;99.90
48007;DHT22;33771;48.180;11.400;2024-01-07T10:19:22;1.00;99.90
48007;DHT22;33771;48.180;11.400;2024-01-07T10:22:03;1.00;99.90
48007;DHT22;33771;48.180;11.400;2024-01-07T10:24:37;1.00;99.90
48007;DHT22;33771;48.180;11.400;2024-01-07T10:27:06;1.00;99.90
48007;DHT22;33771;48.180;11.400;2024-01-07T10:29:32;1.00;99.90
48007;DHT22;33771;48.180;11.400;2024-01-07T10:31:58;1.00;99.90
48007;DHT22;33771;48.180;11.400;2024-01-07T10:34:25;1.00;99.90
48007;DHT22;33771;48.180;11.400;2024-01-07T10:36:55;1.00;99.90
48007;DHT22;33771;48.180;11.400;2024-01-07T10:39:22;1.10;99.90
48007;DHT22;33771;48.180;11.400;2024-01-07T10:41:50;1.10;99.90
48007;DHT22;33771;48.180;11.400;2024-01-07T10:44:16;1.10;99.90
48007;DHT22;33771;48.180;11.400;2024-01-07T10:46:42;1.10;99.90
48007;DHT22;33771;48.180;11.400;2024-01-07T10:49:20;1.20;99.90
48007;DHT22;33771;48.180;11.400;2024-01-07T10:52:03;1.20;99.90
48007;DHT22;33771;48.180;11.400;2024-01-07T10:54:30;1.20;99.90
48007;DHT22;33771;48.180;11.400;2024-01-07T10:59:27;1.30;99.90
48007;DHT22;33771;48.180;11.400;2024-01-07T11:01:54;1.30;99.90
48007;DHT22;33771;48.180;11.400;2024-01-07T11:04:42;1.30;99.90
48007;DHT22;33771;48.180;11.400;2024-01-07T11:07:23;1.30;99.90
48007;DHT22;33771;48.180;11.400;2024-01-07T11:10:12;1.20;99.90
48007;DHT22;33771;48.180;11.400;2024-01-07T11:12:39;1.20;99.90
48007;DHT22;33771;48.180;11.400;2024-01-07T11:15:04;1.20;99.90
48007;DHT22;33771;48.180;11.400;2024-01-07T11:20:05;1.10;99.90
48007;DHT22;33771;48.180;11.400;2024-01-07T11:22:31;1.10;99.90
48007;DHT22;33771;48.180;11.400;2024-01-07T11:24:59;1.10;99.90
48007;DHT22;33771;48.180;11.400;2024-01-07T11:27:26;1.10;99.90
48007;DHT22;33771;48.180;11.400;2024-01-07T11:30:04;1.10;99.90
48007;DHT22;33771;48.180;11.400;2024-01-07T11:32:35;1.00;99.90
48007;DHT22;33771;48.180;11.400;2024-01-07T11:35:01;1.10;99.90
48007;DHT22;33771;48.180;11.400;2024-01-07T11:37:28;1.00;99.90
48007;DHT22;33771;48.180;11.400;2024-01-07T11:39:57;1.00;99.90
48007;DHT22;33771;48.180;11.400;2024-01-07T11:42:23;1.00;99.90
48007;DHT22;33771;48.180;11.400;2024-01-07T11:44:53;1.00;99.90
48007;DHT22;33771;48.180;11.400;2024-01-07T11:47:20;1.00;99.90
48007;DHT22;33771;48.180;11.400;2024-01-07T11:49:46;1.00;99.90
48007;DHT22;33771;48.180;11.400;2024-01-07T11:52:12;1.00;99.90
48007;DHT22;33771;48.180;11.400;2024-01-07T11:54:39;0.90;99.90
48007;DHT22;33771;48.180;11.400;2024-01-07T11:57:05;0.90;99.90
48007;DHT22;33771;48.180;11.400;2024-01-07T11:59:31;0.90;99.90
48007;DHT22;33771;48.180;11.400;2024-01-07T12:01:57;1.00;99.90
48007;DHT22;33771;48.180;11.400;2024-01-07T12:04:24;0.90;99.90
48007;DHT22;33771;48.180;11.400;2024-01-07T12:06:49;0.90;99.90
48007;DHT22;33771;48.180;11.400;2024-01-07T12:09:15;0.80;99.90
48007;DHT22;33771;48.180;11.400;2024-01-07T12:11:41;0.80;99.90
48007;DHT22;33771;48.180;11.400;2024-01-07T12:14:08;0.70;99.90
48007;DHT22;33771;48.180;11.400;2024-01-07T12:16:35;0.70;99.90
48007;DHT22;33771;48.180;11.400;2024-01-07T12:19:00;0.70;99.90
48007;DHT22;33771;48.180;11.400;2024-01-07T12:21:26;0.60;99.90
48007;DHT22;33771;48.180;11.400;2024-01-07T12:23:54;0.60;99.90
48007;DHT22;33771;48.180;11.400;2024-01-07T12:26:20;0.70;99.90
48007;DHT22;33771;48.180;11.400;2024-01-07T12:28:52;0.70;99.90
48007;DHT22;33771;48.180;11.400;2024-01-07T12:31:19;0.60;99.90
48007;DHT22;33771;48.180;11.400;2024-01-07T12:33:46;0.60;99.90
48007;DHT22;33771;48.180;11.400;2024-01-07T12:36:12;0.60;99.90
48007;DHT22;33771;48.180;11.400;2024-01-07T12:38:38;0.60;99.90
48007;DHT22;33771;48.180;11.400;2024-01-07T12:41:04;0.60;99.90
48007;DHT22;33771;48.180;11.400;2024-01-07T12:43:30;0.60;99.90
48007;DHT22;33771;48.180;11.400;2024-01-07T12:45:55;0.60;99.90
48007;DHT22;33771;48.180;11.400;2024-01-07T12:48:22;0.50;99.90
48007;DHT22;33771;48.180;11.400;2024-01-07T12:50:48;0.60;99.90
48007;DHT22;33771;48.180;11.400;2024-01-07T12:53:14;0.60;99.90
48007;DHT22;33771;48.180;11.400;2024-01-07T12:55:39;0.60;99.90
48007;DHT22;33771;48.180;11.400;2024-01-07T12:58:05;0.60;99.90
48007;DHT22;33771;48.180;11.400;2024-01-07T13:00:31;0.50;99.90
48007;DHT22;33771;48.180;11.400;2024-01-07T13:02:57;0.60;99.90
48007;DHT22;33771;48.180;11.400;2024-01-07T13:05:23;0.60;99.90
48007;DHT22;33771;48.180;11.400;2024-01-07T13:07:48;0.50;99.90
48007;DHT22;33771;48.180;11.400;2024-01-07T13:10:15;0.40;99.90
48007;DHT22;33771;48.180;11.400;2024-01-07T13:12:41;0.40;99.90
48007;DHT22;33771;48.180;11.400;2024-01-07T13:15:06;0.40;99.90
48007;DHT22;33771;48.180;11.400;2024-01-07T13:17:32;0.40;99.90
48007;DHT22;33771;48.180;11.400;2024-01-07T13:20:01;0.40;99.90
48007;DHT22;33771;48.180;11.400;2024-01-07T13:22:27;0.30;99.90
48007;DHT22;33771;48.180;11.400;2024-01-07T13:24:52;0.30;99.90
48007;DHT22;33771;48.180;11.400;2024-01-07T13:27:20;0.30;99.90
48007;DHT22;33771;48.180;11.400;2024-01-07T13:29:46;0.30;99.90
48007;DHT22;33771;48.180;11.400;2024-01-07T13:32:13;0.30;99.90
48007;DHT22;33771;48.180;11.400;2024-01-07T13:34:42;0.30;99.90
48007;DHT22;33771;48.180;11.400;2024-01-07T13:37:08;0.30;99.90
48007;DHT22;33771;48.180;11.400;2024-01-07T13:39:33;0.20;99.90
48007;DHT22;33771;48.180;11.400;2024-01-07T13:41:59;0.30;99.90
48007;DHT22;33771;48.180;11.400;2024-01-07T13:44:24;0.20;99.90
48007;DHT22;33771;48.180;11.400;2024-01-07T13:46:50;0.20;99.90
48007;DHT22;33771;48.180;11.400;2024-01-07T13:49:17;0.20;99.90
48007;DHT22;33771;48.180;11.400;2024-01-07T13:51:43;0.20;99.90
48007;DHT22;33771;48.180;11.400;2024-01-07T13:54:09;0.10;99.90
48007;DHT22;33771;48.180;11.400;2024-01-07T13:56:40;0.10;99.90
48007;DHT22;33771;48.180;11.400;2024-01-07T13:59:08;0.10;99.90
48007;DHT22;33771;48.180;11.400;2024-01-07T14:01:34;0.10;99.90
48007;DHT22;33771;48.180;11.400;2024-01-07T14:03:59;0.00;99.90
48007;DHT22;33771;48.180;11.400;2024-01-07T14:06:25;0.00;99.90
48007;DHT22;33771;48.180;11.400;2024-01-07T14:08:51;0.00;99.90
48007;DHT22;33771;48.180;11.400;2024-01-07T14:11:17;0.00;99.90
48007;DHT22;33771;48.180;11.400;2024-01-07T14:13:44;0.00;99.90
48007;DHT22;33771;48.180;11.400;2024-01-07T14:16:11;0.00;99.90
48007;DHT22;33771;48.180;11.400;2024-01-07T14:18:36;-0.10;99.90
48007;DHT22;33771;48.180;11.400;2024-01-07T14:21:02;0.00;99.90
48007;DHT22;33771;48.180;11.400;2024-01-07T14:23:27;-0.10;99.90
48007;DHT22;33771;48.180;11.400;2024-01-07T14:25:55;-0.10;99.90
48007;DHT22;33771;48.180;11.400;2024-01-07T14:28:22;-0.10;99.90
48007;DHT22;33771;48.180;11.400;2024-01-07T14:30:47;-0.10;99.90
48007;DHT22;33771;48.180;11.400;2024-01-07T14:33:13;-0.10;99.90
48007;DHT22;33771;48.180;11.400;2024-01-07T14:35:39;-0.10;99.90
48007;DHT22;33771;48.180;11.400;2024-01-07T14:38:04;-0.20;99.90
48007;DHT22;33771;48.180;11.400;2024-01-07T14:40:30;-0.20;99.90
48007;DHT22;33771;48.180;11.400;2024-01-07T14:42:55;-0.20;99.90
48007;DHT22;33771;48.180;11.400;2024-01-07T14:45:24;-0.20;99.90
48007;DHT22;33771;48.180;11.400;2024-01-07T14:47:51;-0.20;99.90
48007;DHT22;33771;48.180;11.400;2024-01-07T14:50:16;-0.20;99.90
48007;DHT22;33771;48.180;11.400;2024-01-07T14:52:43;-0.30;99.90
48007;DHT22;33771;48.180;11.400;2024-01-07T14:55:08;-0.30;99.90
48007;DHT22;33771;48.180;11.400;2024-01-07T14:57:34;-0.30;99.90
48007;DHT22;33771;48.180;11.400;2024-01-07T14:59:59;-0.30;99.90
48007;DHT22;33771;48.180;11.400;2024-01-07T15:02:25;-0.30;99.90
48007;DHT22;33771;48.180;11.400;2024-01-07T15:04:50;-0.30;99.90
48007;DHT22;33771;48.180;11.400;2024-01-07T15:07:19;-0.30;99.90
48007;DHT22;33771;48.180;11.400;2024-01-07T15:09:45;-0.30;99.90
48007;DHT22;33771;48.180;11.400;2024-01-07T15:12:10;-0.30;99.90
48007;DHT22;33771;48.180;11.400;2024-01-07T15:14:36;-0.30;99.90
48007;DHT22;33771;48.180;11.400;2024-01-07T15:17:02;-0.40;99.90
48007;DHT22;33771;48.180;11.400;2024-01-07T15:19:28;-0.30;99.90
48007;DHT22;33771;48.180;11.400;2024-01-07T15:21:55;-0.40;99.90
48007;DHT22;33771;48.180;11.400;2024-01-07T15:24:20;-0.40;99.90
48007;DHT22;33771;48.180;11.400;2024-01-07T15:26:46;-0.40;99.90
48007;DHT22;33771;48.180;11.400;2024-01-07T15:29:11;-0.40;99.90